createdAt,value
2023-04-11T00:03:06.579Z,12.70
2023-04-11T00:08:28.457Z,12.63
2023-04-11T00:13:51.405Z,12.56
2023-04-11T00:19:15.400Z,12.49
2023-04-11T00:24:37.384Z,12.40
2023-04-11T00:30:01.385Z,12.35
2023-04-11T00:35:23.418Z,12.31
2023-04-11T00:40:45.389Z,12.27
2023-04-11T00:46:07.389Z,12.24
2023-04-11T00:51:29.365Z,12.20
2023-04-11T00:56:51.369Z,12.16
2023-04-11T01:02:13.466Z,12.13
2023-04-11T01:07:37.373Z,12.12
2023-04-11T01:13:00.374Z,12.11
2023-04-11T01:18:22.375Z,12.11
2023-04-11T01:23:44.363Z,12.10
2023-04-11T01:29:06.370Z,12.10
2023-04-11T01:34:29.387Z,12.11
2023-04-11T01:39:51.380Z,12.09
2023-04-11T01:45:13.422Z,12.05
2023-04-11T01:50:35.365Z,12.04
2023-04-11T01:55:57.378Z,12.01
2023-04-11T02:01:22.361Z,12.00
2023-04-11T02:06:47.393Z,11.98
2023-04-11T02:12:09.367Z,11.98
2023-04-11T02:17:38.401Z,11.98
2023-04-11T02:23:00.355Z,11.96
2023-04-11T02:28:22.350Z,11.96
2023-04-11T02:33:44.351Z,11.94
2023-04-11T02:39:07.374Z,11.90
2023-04-11T02:44:29.393Z,11.88
2023-04-11T02:49:51.358Z,11.86
2023-04-11T02:55:18.342Z,11.84
2023-04-11T03:00:40.336Z,11.85
2023-04-11T03:06:03.358Z,11.83
2023-04-11T03:11:26.349Z,11.79
2023-04-11T03:16:49.357Z,11.75
2023-04-11T03:22:14.356Z,11.74
2023-04-11T03:27:36.322Z,11.73
2023-04-11T03:32:59.350Z,11.71
2023-04-11T03:38:21.362Z,11.69
2023-04-11T03:43:43.360Z,11.65
2023-04-11T03:49:08.386Z,11.62
2023-04-11T03:54:31.319Z,11.57
2023-04-11T03:59:56.333Z,11.56
2023-04-11T04:05:19.344Z,11.53
2023-04-11T04:10:41.323Z,11.52
2023-04-11T04:16:04.389Z,11.53
2023-04-11T04:21:28.330Z,11.49
2023-04-11T04:26:50.324Z,11.47
2023-04-11T04:32:29.329Z,11.47
2023-04-11T04:37:58.313Z,11.46
2023-04-11T04:43:39.316Z,11.39
2023-04-11T04:49:06.328Z,11.34
2023-04-11T04:54:28.322Z,11.33
2023-04-11T04:59:50.304Z,11.36
2023-04-11T05:05:14.314Z,11.34
2023-04-11T05:10:36.301Z,11.31
2023-04-11T05:16:00.313Z,11.23
2023-04-11T05:21:22.345Z,11.21
2023-04-11T05:26:44.319Z,11.21
2023-04-11T05:32:08.306Z,11.24
2023-04-11T05:37:31.409Z,11.30
2023-04-11T05:42:53.303Z,11.34
2023-04-11T05:48:16.130Z,11.34
2023-04-11T05:53:38.310Z,11.34
2023-04-11T05:59:00.310Z,11.36
2023-04-11T06:04:22.453Z,11.39
2023-04-11T06:09:44.342Z,11.48
2023-04-11T06:15:06.300Z,11.55
2023-04-11T06:20:29.309Z,11.61
2023-04-11T06:25:51.316Z,11.70
2023-04-11T06:31:15.330Z,11.77
2023-04-11T06:36:37.300Z,11.84
2023-04-11T06:41:59.295Z,11.87
2023-04-11T06:47:21.325Z,11.89
2023-04-11T06:52:43.338Z,11.90
2023-04-11T06:58:05.294Z,11.98
2023-04-11T07:03:27.387Z,12.04
2023-04-11T07:08:50.299Z,11.85
2023-04-11T07:14:12.306Z,11.38
2023-04-11T07:19:41.290Z,11.14
2023-04-11T07:25:04.290Z,10.98
2023-04-11T07:30:26.302Z,10.93
2023-04-11T07:35:48.280Z,10.92
2023-04-11T07:41:11.283Z,10.76
2023-04-11T07:46:33.295Z,10.58
2023-04-11T07:51:55.270Z,10.59
2023-04-11T07:57:17.285Z,10.55
2023-04-11T08:02:39.508Z,10.58
2023-04-11T08:08:01.265Z,10.54
2023-04-11T08:13:23.265Z,10.43
2023-04-11T08:18:52.295Z,10.43
2023-04-11T08:24:15.276Z,10.46
2023-04-11T08:29:37.283Z,10.46
2023-04-11T08:34:59.303Z,10.53
2023-04-11T08:40:21.261Z,10.63
2023-04-11T08:45:43.391Z,10.74
2023-04-11T08:51:05.273Z,10.84
2023-04-11T08:56:27.262Z,10.92
2023-04-11T09:01:49.300Z,10.99
2023-04-11T09:07:12.246Z,11.10
2023-04-11T09:12:42.236Z,11.24
2023-04-11T09:18:04.248Z,11.28
2023-04-11T09:23:35.316Z,11.29
2023-04-11T09:29:00.237Z,11.38
2023-04-11T09:34:22.275Z,11.43
2023-04-11T09:39:44.441Z,11.35
2023-04-11T09:45:06.242Z,11.35
2023-04-11T09:50:29.293Z,11.32
2023-04-11T09:55:51.229Z,11.26
2023-04-11T10:01:15.243Z,11.33
2023-04-11T10:06:54.549Z,11.43
2023-04-11T10:12:16.225Z,11.44
2023-04-11T10:17:38.239Z,11.49
2023-04-11T10:23:00.261Z,11.44
2023-04-11T10:28:23.233Z,11.45
2023-04-11T10:33:47.299Z,11.61
2023-04-11T10:39:09.241Z,11.73
2023-04-11T10:44:31.256Z,11.88
2023-04-11T10:49:53.216Z,11.91
2023-04-11T10:55:23.213Z,11.83
2023-04-11T11:01:21.440Z,11.88
2023-04-11T11:06:56.954Z,11.89
2023-04-11T11:12:22.236Z,11.90
2023-04-11T11:17:44.280Z,11.84
2023-04-11T11:23:20.226Z,11.87
2023-04-11T11:28:53.200Z,11.95
2023-04-11T11:39:41.215Z,12.09
2023-04-11T11:45:03.248Z,12.24
2023-04-11T11:50:37.253Z,12.47
2023-04-11T11:55:59.219Z,12.66
2023-04-11T12:01:22.208Z,12.72
2023-04-11T12:06:45.211Z,12.42
2023-04-11T12:12:07.211Z,12.35
2023-04-11T12:17:29.233Z,12.37
2023-04-11T12:22:53.618Z,12.43
2023-04-11T12:28:16.208Z,12.26
2023-04-11T12:33:38.194Z,12.28
2023-04-11T12:39:00.233Z,12.27
2023-04-11T12:44:22.206Z,12.35
2023-04-11T12:49:44.199Z,12.55
2023-04-11T12:55:06.180Z,12.61
2023-04-11T13:00:28.192Z,12.78
2023-04-11T13:05:50.180Z,12.92
2023-04-11T13:11:12.202Z,12.98
2023-04-11T13:16:34.242Z,13.09
2023-04-11T13:21:56.216Z,13.26
2023-04-11T13:27:18.183Z,13.16
2023-04-11T13:32:40.241Z,12.96
2023-04-11T13:38:02.192Z,12.79
2023-04-11T13:43:24.183Z,12.73
2023-04-11T13:48:46.189Z,12.61
2023-04-11T13:54:08.196Z,12.32
2023-04-11T13:59:30.176Z,12.20
2023-04-11T14:04:52.162Z,11.91
2023-04-11T14:10:14.199Z,11.86
2023-04-11T14:15:36.194Z,12.10
2023-04-11T14:21:07.224Z,12.24
2023-04-11T14:26:29.178Z,12.44
2023-04-11T14:31:51.374Z,12.64
2023-04-11T14:37:13.177Z,12.87
2023-04-11T14:42:35.170Z,13.06
2023-04-11T14:47:57.218Z,13.25
2023-04-11T14:53:19.183Z,13.31
2023-04-11T14:58:41.163Z,13.39
2023-04-11T15:04:03.280Z,13.42
2023-04-11T15:09:27.165Z,13.49
2023-04-11T15:14:49.160Z,13.46
2023-04-11T15:20:18.159Z,13.41
2023-04-11T15:25:40.171Z,13.48
2023-04-11T15:31:04.152Z,13.52
2023-04-11T15:36:26.238Z,13.33
2023-04-11T15:41:48.196Z,13.32
2023-04-11T15:47:10.221Z,13.66
2023-04-11T15:52:32.440Z,13.78
2023-04-11T15:57:58.181Z,13.81
2023-04-11T16:03:20.462Z,13.85
2023-04-11T16:08:42.148Z,13.91
2023-04-11T16:14:04.170Z,14.06
2023-04-11T16:19:26.177Z,14.14
2023-04-11T16:24:48.164Z,14.23
2023-04-11T16:30:12.214Z,14.45
2023-04-11T16:35:34.192Z,14.64
2023-04-11T16:40:56.171Z,14.63
2023-04-11T16:46:19.212Z,14.71
2023-04-11T16:51:43.166Z,14.78
2023-04-11T16:57:05.177Z,14.83
2023-04-11T17:02:27.246Z,14.94
2023-04-11T17:07:50.161Z,14.79
2023-04-11T17:13:12.163Z,14.71
2023-04-11T17:18:34.160Z,14.68
2023-04-11T17:23:57.150Z,14.67
2023-04-11T17:29:19.173Z,14.58
2023-04-11T17:34:41.156Z,14.44
2023-04-11T17:40:03.141Z,14.37
2023-04-11T17:45:26.164Z,14.27
2023-04-11T17:50:52.154Z,14.14
2023-04-11T17:56:14.169Z,13.97
2023-04-11T18:01:39.256Z,13.88
2023-04-11T18:07:01.156Z,13.81
2023-04-11T18:12:29.503Z,13.78
2023-04-11T18:17:51.127Z,13.73
2023-04-11T18:23:13.149Z,13.70
2023-04-11T18:28:35.174Z,13.65
2023-04-11T18:33:57.623Z,13.59
2023-04-11T18:39:20.393Z,13.52
2023-04-11T18:44:42.109Z,13.46
2023-04-11T18:50:04.132Z,13.41
2023-04-11T18:55:26.116Z,13.32
2023-04-11T19:00:48.271Z,13.26
2023-04-11T19:06:10.208Z,13.20
2023-04-11T19:11:32.084Z,13.15
2023-04-11T19:16:54.112Z,13.04
2023-04-11T19:22:16.103Z,12.89
2023-04-11T19:27:38.108Z,12.72
2023-04-11T19:33:00.167Z,12.56
2023-04-11T19:38:22.095Z,12.47
2023-04-11T19:43:44.092Z,12.38
2023-04-11T19:49:06.105Z,12.29
2023-04-11T19:54:28.106Z,12.23
2023-04-11T19:59:50.106Z,12.16
2023-04-11T20:05:13.116Z,12.12
2023-04-11T20:10:35.082Z,12.09
2023-04-11T20:15:57.108Z,12.04
2023-04-11T20:21:26.089Z,12.00
2023-04-11T20:26:48.088Z,11.96
2023-04-11T20:32:11.097Z,11.91
2023-04-11T20:37:33.102Z,11.85
2023-04-11T20:42:56.082Z,11.79
2023-04-11T20:48:19.078Z,11.69
2023-04-11T20:53:41.078Z,11.54
2023-04-11T20:59:03.086Z,11.35
2023-04-11T21:04:25.152Z,11.24
2023-04-11T21:09:47.072Z,11.18
2023-04-11T21:15:11.070Z,11.10
2023-04-11T21:20:33.088Z,11.05
2023-04-11T21:25:55.068Z,10.96
2023-04-11T21:31:17.103Z,10.90
2023-04-11T21:36:39.070Z,10.85
2023-04-11T21:42:01.062Z,10.80
2023-04-11T21:47:23.117Z,10.76
2023-04-11T21:52:45.073Z,10.69
2023-04-11T21:58:08.174Z,10.60
2023-04-11T22:03:35.288Z,10.51
2023-04-11T22:08:57.072Z,10.39
2023-04-11T22:14:23.052Z,10.31
2023-04-11T22:19:49.055Z,10.24
2023-04-11T22:25:11.081Z,10.17
2023-04-11T22:30:37.591Z,10.11
2023-04-11T22:36:00.091Z,10.03
2023-04-11T22:41:28.074Z,9.98
2023-04-11T22:47:04.050Z,9.91
2023-04-11T22:52:31.040Z,9.86
2023-04-11T22:57:53.065Z,9.81
2023-04-11T23:03:15.123Z,9.77
2023-04-11T23:08:37.044Z,9.74
2023-04-11T23:13:59.293Z,9.71
2023-04-11T23:19:21.054Z,9.68
2023-04-11T23:24:43.035Z,9.66
2023-04-11T23:30:06.050Z,9.65
2023-04-11T23:35:28.037Z,9.65
2023-04-11T23:40:50.034Z,9.64
2023-04-11T23:46:12.039Z,9.63
2023-04-11T23:51:34.028Z,9.60
2023-04-11T23:56:56.021Z,9.57
